Time;durP1;ratioP1;P1;durP2;ratioP2;P2;SDS_P1;SDS_P2;PMS_P1;PMS_P2;Temp;Humidity;BMP_temperature;BMP_pressure;BME280_temperature;BME280_humidity;BME280_pressure;Samples;Min_cycle;Max_cycle;Signal;HPM_P1;HPM_P2
2023/10/28 00:00:57;;;;;;;53.90;21.87;;;;;;;;;;6264635;28;20052;-62
2023/10/28 00:04:09;;;;;;;52.25;21.77;;;;;;;;;;6263992;28;20302;-62
2023/10/28 00:07:09;;;;;;;49.63;19.55;;;;;;;;;;6263790;28;20486;-61
2023/10/28 00:10:10;;;;;;;43.55;17.88;;;;;;;;;;6265704;28;20053;-62
2023/10/28 00:13:11;;;;;;;38.25;16.67;;;;;;;;;;6264562;28;20072;-62
2023/10/28 00:16:12;;;;;;;47.75;18.05;;;;;;;;;;6263224;28;20049;-62
2023/10/28 00:19:13;;;;;;;44.67;16.40;;;;;;;;;;6263503;28;20037;-62
2023/10/28 00:22:13;;;;;;;42.10;16.60;;;;;;;;;;6264648;28;20068;-62
2023/10/28 00:25:15;;;;;;;39.30;15.75;;;;;;;;;;6263639;28;20518;-61
2023/10/28 00:28:15;;;;;;;39.35;16.33;;;;;;;;;;6264017;28;20411;-62
2023/10/28 00:31:19;;;;;;;37.38;15.23;;;;;;;;;;6265210;28;20049;-61
2023/10/28 00:34:20;;;;;;;35.25;14.98;;;;;;;;;;6263750;28;20041;-62
2023/10/28 00:37:20;;;;;;;33.13;13.88;;;;;;;;;;6263193;28;20041;-62
2023/10/28 00:40:29;;;;;;;28.75;12.75;;;;;;;;;;6266283;28;20118;-61
2023/10/28 00:43:32;;;;;;;35.13;12.70;;;;;;;;;;6262338;28;20065;-62
2023/10/28 00:46:32;;;;;;;32.20;12.77;;;;;;;;;;6266117;28;20132;-62
2023/10/28 00:49:33;;;;;;;27.60;12.77;;;;;;;;;;6271397;28;20056;-62
2023/10/28 00:52:34;;;;;;;32.72;13.30;;;;;;;;;;6267967;28;20439;-62
2023/10/28 00:55:34;;;;;;;34.65;13.63;;;;;;;;;;6267828;28;20113;-61
2023/10/28 00:58:36;;;;;;;30.00;11.70;;;;;;;;;;6268552;28;20499;-62
2023/10/28 01:01:36;;;;;;;25.95;11.13;;;;;;;;;;6268356;28;20530;-62
2023/10/28 01:04:38;;;;;;;26.08;11.50;;;;;;;;;;6267044;28;20053;-62
2023/10/28 01:07:43;;;;;;;28.45;11.50;;;;;;;;;;6267478;28;20047;-63
2023/10/28 01:10:44;;;;;;;25.27;11.00;;;;;;;;;;6266332;28;20070;-61
2023/10/28 01:13:44;;;;;;;26.85;11.43;;;;;;;;;;6267330;28;20488;-61
2023/10/28 01:16:45;;;;;;;25.02;10.93;;;;;;;;;;6267298;28;20109;-62
2023/10/28 01:19:46;;;;;;;26.42;11.35;;;;;;;;;;6268454;28;20082;-62
2023/10/28 01:22:47;;;;;;;26.77;11.25;;;;;;;;;;6266788;28;20454;-62
2023/10/28 01:25:47;;;;;;;28.80;11.45;;;;;;;;;;6267077;28;20506;-62
2023/10/28 01:28:48;;;;;;;24.08;10.52;;;;;;;;;;6267627;28;20045;-62
2023/10/28 01:31:48;;;;;;;28.60;11.38;;;;;;;;;;6268268;28;20049;-62
2023/10/28 01:34:51;;;;;;;25.20;10.65;;;;;;;;;;6266811;28;20168;-62
2023/10/28 01:37:51;;;;;;;24.65;10.13;;;;;;;;;;6265902;28;20152;-62
2023/10/28 01:40:53;;;;;;;22.52;10.10;;;;;;;;;;6265865;28;20052;-62
2023/10/28 01:43:53;;;;;;;22.48;10.90;;;;;;;;;;6268653;28;20510;-62
2023/10/28 01:46:55;;;;;;;28.27;10.90;;;;;;;;;;6264750;28;20045;-62
2023/10/28 01:49:57;;;;;;;23.67;10.00;;;;;;;;;;6265019;28;20059;-62
2023/10/28 01:52:58;;;;;;;19.20;9.02;;;;;;;;;;6266458;28;20386;-62
2023/10/28 01:55:58;;;;;;;23.95;9.80;;;;;;;;;;6266561;28;20049;-61
2023/10/28 01:58:59;;;;;;;20.25;9.18;;;;;;;;;;6267089;28;20571;-62
2023/10/28 02:02:02;;;;;;;22.35;9.48;;;;;;;;;;6267164;28;20056;-62
2023/10/28 02:05:03;;;;;;;16.25;7.88;;;;;;;;;;6267616;28;20049;-62
2023/10/28 02:08:04;;;;;;;16.52;8.32;;;;;;;;;;6266589;28;20399;-61
2023/10/28 02:11:07;;;;;;;17.80;7.80;;;;;;;;;;6267932;28;20094;-61
2023/10/28 02:14:11;;;;;;;14.68;7.28;;;;;;;;;;6265448;28;20136;-62
2023/10/28 02:17:12;;;;;;;16.63;7.35;;;;;;;;;;6264475;28;20595;-62
2023/10/28 02:20:13;;;;;;;15.43;6.97;;;;;;;;;;6267088;28;20057;-62
2023/10/28 02:23:14;;;;;;;13.00;7.05;;;;;;;;;;6267420;28;20049;-62
2023/10/28 02:26:14;;;;;;;17.58;6.55;;;;;;;;;;6266201;28;20411;-61
2023/10/28 02:29:15;;;;;;;13.88;6.80;;;;;;;;;;6266033;28;20048;-62
2023/10/28 02:32:16;;;;;;;19.15;7.20;;;;;;;;;;6267309;28;20041;-62
2023/10/28 02:35:16;;;;;;;15.00;7.35;;;;;;;;;;6266012;28;20453;-61
2023/10/28 02:38:17;;;;;;;15.00;7.65;;;;;;;;;;6265717;28;20062;-62
2023/10/28 02:41:18;;;;;;;18.75;7.00;;;;;;;;;;6262785;28;20069;-61
2023/10/28 02:44:18;;;;;;;16.80;7.50;;;;;;;;;;6266968;28;20434;-62
2023/10/28 02:47:19;;;;;;;16.70;6.85;;;;;;;;;;6264326;28;20095;-62
2023/10/28 02:50:19;;;;;;;14.40;6.97;;;;;;;;;;6266676;28;20225;-62
2023/10/28 02:53:20;;;;;;;15.13;7.15;;;;;;;;;;6266287;28;20037;-62
2023/10/28 02:56:20;;;;;;;14.55;7.32;;;;;;;;;;6264844;28;20095;-62
2023/10/28 02:59:21;;;;;;;13.43;6.07;;;;;;;;;;6265774;28;20048;-61
2023/10/28 03:02:21;;;;;;;13.55;5.97;;;;;;;;;;6265393;28;20056;-62
2023/10/28 03:05:23;;;;;;;12.02;5.82;;;;;;;;;;6265560;28;20457;-62
2023/10/28 03:08:24;;;;;;;11.27;6.15;;;;;;;;;;6265028;28;20044;-62
2023/10/28 03:11:25;;;;;;;10.77;6.18;;;;;;;;;;6266385;28;20467;-62
2023/10/28 03:14:25;;;;;;;11.20;5.63;;;;;;;;;;6265212;28;20041;-62
2023/10/28 03:17:26;;;;;;;11.13;5.38;;;;;;;;;;6264749;28;20055;-62
2023/10/28 03:20:26;;;;;;;12.15;5.18;;;;;;;;;;6265864;28;20052;-62
2023/10/28 03:23:28;;;;;;;12.27;5.43;;;;;;;;;;6264355;28;20118;-62
2023/10/28 03:26:28;;;;;;;8.77;5.40;;;;;;;;;;6262062;28;21029;-62
2023/10/28 03:29:29;;;;;;;11.05;4.90;;;;;;;;;;6265320;28;20306;-62
2023/10/28 03:32:30;;;;;;;12.18;5.50;;;;;;;;;;6265121;28;20059;-61
2023/10/28 03:35:30;;;;;;;9.93;4.93;;;;;;;;;;6265506;28;20106;-62
2023/10/28 03:38:33;;;;;;;11.07;5.13;;;;;;;;;;6264483;28;20049;-61
2023/10/28 03:41:34;;;;;;;12.38;5.00;;;;;;;;;;6264591;28;20049;-62
2023/10/28 03:44:35;;;;;;;12.20;5.97;;;;;;;;;;6264815;28;20564;-62
2023/10/28 03:47:38;;;;;;;13.07;6.13;;;;;;;;;;6263838;28;20045;-63
2023/10/28 03:50:38;;;;;;;8.90;4.93;;;;;;;;;;6264890;28;20045;-62
2023/10/28 03:53:39;;;;;;;13.30;5.10;;;;;;;;;;6264681;28;20054;-62
2023/10/28 03:56:40;;;;;;;10.38;4.85;;;;;;;;;;6262528;28;20068;-63
2023/10/28 03:59:40;;;;;;;12.85;5.75;;;;;;;;;;6263269;28;20045;-62
2023/10/28 04:02:41;;;;;;;11.52;5.40;;;;;;;;;;6263912;28;20114;-62
2023/10/28 04:05:42;;;;;;;10.30;4.93;;;;;;;;;;6261997;28;20064;-62
2023/10/28 04:08:42;;;;;;;11.98;5.88;;;;;;;;;;6261377;28;20049;-62
2023/10/28 04:11:44;;;;;;;12.73;6.05;;;;;;;;;;6263536;28;20060;-62
2023/10/28 04:14:45;;;;;;;12.50;5.90;;;;;;;;;;6264187;28;20124;-62
2023/10/28 04:17:45;;;;;;;11.07;5.13;;;;;;;;;;6262818;28;20045;-62
2023/10/28 04:20:47;;;;;;;12.02;5.40;;;;;;;;;;6269830;28;20045;-62
2023/10/28 04:23:48;;;;;;;;;;;;;;;;;;6270487;28;20041;-61
2023/10/28 04:26:49;;;;;;;9.77;4.97;;;;;;;;;;6268421;28;19920;-61
2023/10/28 04:29:50;;;;;;;10.02;4.95;;;;;;;;;;6269186;28;20407;-62
2023/10/28 04:32:54;;;;;;;11.57;4.55;;;;;;;;;;6269687;28;20140;-62
2023/10/28 04:35:55;;;;;;;11.10;4.95;;;;;;;;;;6269327;28;20600;-62
2023/10/28 04:38:55;;;;;;;10.80;4.65;;;;;;;;;;6267323;28;20048;-62
2023/10/28 04:41:56;;;;;;;13.32;5.35;;;;;;;;;;6265065;28;20079;-61
2023/10/28 04:44:56;;;;;;;8.57;4.30;;;;;;;;;;6269358;28;20064;-62
2023/10/28 04:47:57;;;;;;;15.23;5.90;;;;;;;;;;6267835;28;20203;-63
2023/10/28 04:50:58;;;;;;;8.38;4.47;;;;;;;;;;6269376;28;20110;-62
2023/10/28 04:53:59;;;;;;;14.70;4.43;;;;;;;;;;6267722;28;20047;-62
2023/10/28 04:57:00;;;;;;;10.77;4.78;;;;;;;;;;6264744;28;20041;-62
2023/10/28 05:00:00;;;;;;;9.55;4.22;;;;;;;;;;6270387;28;20052;-62
2023/10/28 05:03:01;;;;;;;11.25;4.20;;;;;;;;;;6265636;28;20061;-62
2023/10/28 05:06:02;;;;;;;9.18;3.88;;;;;;;;;;6268079;28;20049;-62
2023/10/28 05:09:03;;;;;;;8.82;3.72;;;;;;;;;;6266683;28;20143;-62
2023/10/28 05:12:03;;;;;;;12.32;4.55;;;;;;;;;;6267072;28;20053;-62
2023/10/28 05:15:06;;;;;;;10.55;4.50;;;;;;;;;;6268452;28;20044;-63
2023/10/28 05:18:07;;;;;;;8.20;4.10;;;;;;;;;;6267285;28;20052;-61
2023/10/28 05:21:08;;;;;;;10.48;4.38;;;;;;;;;;6268672;28;20049;-62
2023/10/28 05:24:09;;;;;;;11.57;5.00;;;;;;;;;;6268628;28;20044;-61
2023/10/28 05:27:10;;;;;;;11.52;4.55;;;;;;;;;;6266374;28;20669;-62
2023/10/28 05:30:11;;;;;;;8.98;4.65;;;;;;;;;;6267443;28;20060;-61
2023/10/28 05:33:11;;;;;;;14.18;5.13;;;;;;;;;;6266550;28;20095;-61
2023/10/28 05:36:12;;;;;;;10.57;5.28;;;;;;;;;;6267279;28;20541;-63
2023/10/28 05:39:12;;;;;;;11.30;4.57;;;;;;;;;;6266441;28;20064;-62
2023/10/28 05:42:16;;;;;;;10.20;4.90;;;;;;;;;;6264323;28;20098;-62
2023/10/28 05:45:18;;;;;;;12.07;5.47;;;;;;;;;;6264355;28;20067;-62
2023/10/28 05:48:19;;;;;;;11.80;4.38;;;;;;;;;;6264520;28;20041;-62
2023/10/28 05:51:20;;;;;;;9.68;3.70;;;;;;;;;;6267996;28;20408;-62
2023/10/28 05:54:20;;;;;;;11.50;4.17;;;;;;;;;;6268435;28;20475;-63
2023/10/28 05:57:21;;;;;;;7.57;3.72;;;;;;;;;;6262193;28;20037;-66
2023/10/28 06:00:22;;;;;;;9.23;3.90;;;;;;;;;;6262792;28;20061;-65
2023/10/28 06:03:22;;;;;;;7.85;3.63;;;;;;;;;;6256484;28;20576;-66
2023/10/28 06:06:23;;;;;;;13.35;3.92;;;;;;;;;;6266779;28;20079;-65
2023/10/28 06:09:23;;;;;;;10.90;3.75;;;;;;;;;;6264414;28;20049;-65
2023/10/28 06:12:25;;;;;;;8.95;3.70;;;;;;;;;;6267276;28;20061;-66
2023/10/28 06:15:25;;;;;;;10.85;4.43;;;;;;;;;;6267714;28;20037;-68
2023/10/28 06:18:26;;;;;;;9.95;4.65;;;;;;;;;;6264074;28;20147;-65
2023/10/28 06:21:26;;;;;;;11.13;4.28;;;;;;;;;;6267450;28;20045;-66
2023/10/28 06:24:28;;;;;;;13.00;4.57;;;;;;;;;;6265724;28;20078;-66
2023/10/28 06:27:29;;;;;;;13.70;5.50;;;;;;;;;;6262401;28;20411;-66
2023/10/28 06:30:29;;;;;;;11.38;4.63;;;;;;;;;;6266774;28;20037;-66
2023/10/28 06:33:30;;;;;;;20.17;12.23;;;;;;;;;;6267152;28;20557;-65
2023/10/28 06:36:33;;;;;;;10.48;4.28;;;;;;;;;;6266819;28;20055;-67
2023/10/28 06:39:34;;;;;;;10.02;4.35;;;;;;;;;;6266983;28;20040;-67
2023/10/28 06:42:36;;;;;;;19.23;6.53;;;;;;;;;;6264701;28;20135;-67
2023/10/28 06:45:38;;;;;;;8.32;3.83;;;;;;;;;;6265648;28;20048;-64
2023/10/28 06:48:39;;;;;;;10.87;4.33;;;;;;;;;;6264994;28;20049;-66
2023/10/28 06:51:39;;;;;;;9.73;4.30;;;;;;;;;;6266465;28;20499;-66
2023/10/28 06:54:40;;;;;;;11.27;4.60;;;;;;;;;;6266359;28;20052;-66
2023/10/28 06:57:41;;;;;;;15.05;5.25;;;;;;;;;;6264599;28;20037;-65
2023/10/28 07:00:42;;;;;;;12.23;5.05;;;;;;;;;;6267418;28;20045;-66
2023/10/28 07:03:42;;;;;;;10.63;4.72;;;;;;;;;;6266401;28;20084;-66
2023/10/28 07:06:43;;;;;;;11.15;4.78;;;;;;;;;;6260867;28;20069;-66
2023/10/28 07:09:44;;;;;;;12.60;4.82;;;;;;;;;;6263744;28;20041;-65
2023/10/28 07:12:44;;;;;;;9.75;4.28;;;;;;;;;;6265134;28;20045;-66
2023/10/28 07:15:45;;;;;;;11.15;4.50;;;;;;;;;;6266282;28;20476;-65
2023/10/28 07:18:45;;;;;;;13.77;4.40;;;;;;;;;;6265323;28;20068;-67
2023/10/28 07:21:46;;;;;;;12.18;4.20;;;;;;;;;;6257669;28;20050;-66
2023/10/28 07:24:47;;;;;;;9.20;3.95;;;;;;;;;;6262101;28;20079;-66
2023/10/28 07:27:48;;;;;;;9.02;4.07;;;;;;;;;;6263820;28;20418;-61
2023/10/28 07:30:50;;;;;;;11.30;4.20;;;;;;;;;;6264699;28;20064;-66
2023/10/28 07:33:51;;;;;;;12.73;4.10;;;;;;;;;;6266959;28;20065;-64
2023/10/28 07:36:52;;;;;;;9.85;4.03;;;;;;;;;;6265926;28;20285;-75
2023/10/28 07:39:52;;;;;;;10.32;4.03;;;;;;;;;;6266356;28;20053;-66
2023/10/28 07:42:53;;;;;;;10.90;4.53;;;;;;;;;;6258936;28;20089;-64
2023/10/28 07:45:54;;;;;;;11.35;5.22;;;;;;;;;;6258399;28;20079;-64
2023/10/28 07:48:55;;;;;;;11.75;4.32;;;;;;;;;;6265573;28;20099;-58
2023/10/28 07:51:56;;;;;;;11.05;4.82;;;;;;;;;;6264257;28;20041;-65
2023/10/28 07:54:56;;;;;;;10.55;4.57;;;;;;;;;;6266196;28;20087;-60
2023/10/28 07:57:57;;;;;;;11.45;4.85;;;;;;;;;;6264001;28;20044;-62
2023/10/28 08:00:57;;;;;;;17.95;4.47;;;;;;;;;;6266084;28;20041;-62
2023/10/28 08:03:58;;;;;;;11.52;4.80;;;;;;;;;;6266753;28;20057;-63
2023/10/28 08:07:00;;;;;;;10.10;4.10;;;;;;;;;;6257149;28;20167;-62
2023/10/28 08:10:01;;;;;;;9.55;3.60;;;;;;;;;;6253011;28;20074;-62
2023/10/28 08:13:02;;;;;;;11.00;3.80;;;;;;;;;;6265206;28;20049;-62
2023/10/28 08:16:03;;;;;;;9.77;4.00;;;;;;;;;;6265101;28;20136;-61
2023/10/28 08:19:04;;;;;;;9.65;4.28;;;;;;;;;;6265487;28;20057;-61
2023/10/28 08:22:04;;;;;;;9.93;4.15;;;;;;;;;;6256236;28;20049;-61
2023/10/28 08:25:06;;;;;;;10.27;3.85;;;;;;;;;;6266210;28;20068;-62
2023/10/28 08:28:06;;;;;;;8.40;3.78;;;;;;;;;;6259945;28;20138;-62
2023/10/28 08:31:08;;;;;;;9.52;3.78;;;;;;;;;;6265012;28;20424;-63
2023/10/28 08:34:09;;;;;;;12.43;4.90;;;;;;;;;;6266344;28;20053;-61
2023/10/28 08:37:13;;;;;;;8.10;3.55;;;;;;;;;;6263800;28;20789;-61
2023/10/28 08:40:14;;;;;;;9.20;3.10;;;;;;;;;;6265337;28;20051;-62
2023/10/28 08:43:15;;;;;;;7.50;3.43;;;;;;;;;;6264940;28;20060;-62
2023/10/28 08:46:16;;;;;;;8.77;5.10;;;;;;;;;;6264130;28;20460;-61
2023/10/28 08:49:18;;;;;;;7.15;3.00;;;;;;;;;;6265344;28;20626;-62
2023/10/28 08:52:21;;;;;;;10.55;3.20;;;;;;;;;;6266319;28;20511;-61
2023/10/28 08:55:25;;;;;;;11.50;2.70;;;;;;;;;;6266084;28;20045;-62
2023/10/28 08:58:26;;;;;;;10.43;3.45;;;;;;;;;;6244336;28;20151;-62
2023/10/28 09:01:28;;;;;;;11.25;3.78;;;;;;;;;;6260892;28;20439;-60
2023/10/28 09:04:29;;;;;;;7.33;2.70;;;;;;;;;;6262180;28;20134;-60
2023/10/28 09:07:29;;;;;;;9.02;2.50;;;;;;;;;;6264692;28;20966;-60
2023/10/28 09:10:30;;;;;;;13.82;2.92;;;;;;;;;;6263482;28;20049;-61
2023/10/28 09:13:31;;;;;;;6.65;2.70;;;;;;;;;;6263326;28;20091;-61
2023/10/28 09:16:32;;;;;;;7.88;2.13;;;;;;;;;;6262879;28;20041;-60
2023/10/28 09:19:33;;;;;;;8.77;2.47;;;;;;;;;;6265604;28;20056;-61
2023/10/28 09:22:38;;;;;;;7.20;2.20;;;;;;;;;;6261563;28;20540;-61
2023/10/28 09:25:40;;;;;;;8.38;2.75;;;;;;;;;;6267162;28;20132;-60
2023/10/28 09:28:46;;;;;;;7.37;2.70;;;;;;;;;;6263117;28;20041;-61
2023/10/28 09:31:47;;;;;;;8.30;2.58;;;;;;;;;;6266709;28;20057;-61
2023/10/28 09:34:47;;;;;;;6.38;2.63;;;;;;;;;;6265226;28;20075;-60
2023/10/28 09:37:49;;;;;;;9.43;2.88;;;;;;;;;;6265241;28;20379;-60
2023/10/28 09:40:50;;;;;;;5.85;2.85;;;;;;;;;;6266788;28;20146;-61
2023/10/28 09:43:52;;;;;;;5.60;2.80;;;;;;;;;;6266623;28;20044;-60
2023/10/28 09:47:03;;;;;;;6.85;2.47;;;;;;;;;;6263827;28;20316;-60
2023/10/28 09:50:07;;;;;;;10.75;3.40;;;;;;;;;;6263115;28;20132;-61
2023/10/28 09:53:09;;;;;;;6.47;3.00;;;;;;;;;;6265027;28;20403;-61
2023/10/28 09:56:12;;;;;;;7.63;2.83;;;;;;;;;;6265776;28;20045;-67
2023/10/28 09:59:19;;;;;;;8.45;2.67;;;;;;;;;;6261330;28;20480;-62
2023/10/28 10:02:47;;;;;;;5.82;3.05;;;;;;;;;;6268004;28;20052;-62
2023/10/28 10:05:48;;;;;;;5.63;2.97;;;;;;;;;;6265629;28;20087;-61
2023/10/28 10:08:50;;;;;;;7.00;2.83;;;;;;;;;;6265276;28;20051;-61
2023/10/28 10:11:51;;;;;;;9.27;2.90;;;;;;;;;;6260026;28;20124;-61
2023/10/28 10:14:52;;;;;;;7.85;3.00;;;;;;;;;;6267784;28;20045;-61
2023/10/28 10:18:10;;;;;;;12.63;6.95;;;;;;;;;;6266451;28;20040;-61
2023/10/28 10:21:12;;;;;;;17.38;6.55;;;;;;;;;;6263236;28;20144;-60
2023/10/28 10:24:12;;;;;;;7.28;3.65;;;;;;;;;;6264191;28;20044;-61
2023/10/28 10:27:13;;;;;;;9.75;4.15;;;;;;;;;;6266526;28;20131;-61
2023/10/28 10:30:14;;;;;;;11.02;7.03;;;;;;;;;;6266699;28;20037;-61
2023/10/28 10:33:25;;;;;;;8.55;3.30;;;;;;;;;;6258251;28;21090;-61
2023/10/28 10:36:28;;;;;;;9.57;5.88;;;;;;;;;;6261819;28;20357;-61
2023/10/28 10:39:28;;;;;;;8.25;3.45;;;;;;;;;;6266271;28;20538;-61
2023/10/28 10:42:30;;;;;;;6.97;3.00;;;;;;;;;;6262708;28;20209;-60
2023/10/28 10:45:32;;;;;;;7.75;3.40;;;;;;;;;;6261917;28;20033;-62
2023/10/28 10:48:33;;;;;;;7.05;2.80;;;;;;;;;;6265517;28;20053;-61
2023/10/28 10:51:34;;;;;;;7.35;4.40;;;;;;;;;;6262803;28;20041;-61
2023/10/28 10:54:37;;;;;;;12.50;5.03;;;;;;;;;;6261174;28;20393;-61
2023/10/28 10:57:38;;;;;;;10.85;5.22;;;;;;;;;;6265474;28;20052;-61
2023/10/28 11:00:39;;;;;;;11.55;4.28;;;;;;;;;;6261289;28;20198;-61
2023/10/28 11:03:40;;;;;;;13.80;4.63;;;;;;;;;;6257968;28;20559;-66
2023/10/28 11:06:41;;;;;;;10.50;4.25;;;;;;;;;;6257092;28;20055;-60
2023/10/28 11:09:42;;;;;;;10.75;4.95;;;;;;;;;;6261667;28;20053;-62
2023/10/28 11:12:42;;;;;;;9.50;4.63;;;;;;;;;;6260952;28;20503;-62
2023/10/28 11:15:43;;;;;;;9.10;4.22;;;;;;;;;;6264630;28;20048;-63
2023/10/28 11:18:43;;;;;;;10.23;3.38;;;;;;;;;;6264178;28;20053;-64
2023/10/28 11:21:44;;;;;;;10.00;3.60;;;;;;;;;;6266759;28;20056;-61
2023/10/28 11:24:45;;;;;;;11.27;5.00;;;;;;;;;;6246924;28;20853;-66
2023/10/28 11:27:51;;;;;;;12.60;4.38;;;;;;;;;;6256562;28;20080;-62
2023/10/28 11:30:52;;;;;;;9.88;3.70;;;;;;;;;;6256718;28;20045;-61
2023/10/28 11:33:54;;;;;;;10.00;4.53;;;;;;;;;;6253897;28;20106;-62
2023/10/28 11:36:55;;;;;;;13.13;4.10;;;;;;;;;;6258064;28;20481;-61
2023/10/28 11:39:56;;;;;;;9.75;3.97;;;;;;;;;;6258158;28;20048;-62
2023/10/28 11:42:58;;;;;;;13.65;4.82;;;;;;;;;;6257118;28;20623;-61
2023/10/28 11:45:58;;;;;;;9.30;4.25;;;;;;;;;;6248424;28;20514;-60
2023/10/28 11:48:59;;;;;;;8.50;4.18;;;;;;;;;;6256089;28;20041;-61
2023/10/28 11:52:00;;;;;;;11.73;4.40;;;;;;;;;;6256830;28;20037;-61
2023/10/28 11:55:05;;;;;;;13.55;4.60;;;;;;;;;;6252811;28;20044;-62
2023/10/28 11:58:05;;;;;;;11.32;4.70;;;;;;;;;;6256450;28;20513;-61
2023/10/28 12:01:06;;;;;;;11.93;5.72;;;;;;;;;;6256597;28;20094;-61
2023/10/28 12:04:07;;;;;;;12.95;5.50;;;;;;;;;;6251430;28;20484;-61
2023/10/28 12:07:09;;;;;;;10.15;4.35;;;;;;;;;;6252673;28;20049;-62
2023/10/28 12:10:10;;;;;;;11.82;4.47;;;;;;;;;;6251376;28;20474;-60
2023/10/28 12:13:15;;;;;;;12.95;6.10;;;;;;;;;;6249174;28;20053;-61
2023/10/28 12:16:16;;;;;;;10.77;4.57;;;;;;;;;;6250084;28;20041;-62
2023/10/28 12:19:16;;;;;;;12.60;5.30;;;;;;;;;;6254559;28;20535;-60
2023/10/28 12:22:18;;;;;;;14.35;5.80;;;;;;;;;;6251934;28;20045;-61
2023/10/28 12:25:18;;;;;;;10.93;4.40;;;;;;;;;;6249504;28;20083;-61
2023/10/28 12:28:22;;;;;;;11.90;4.72;;;;;;;;;;6254525;28;20123;-61
2023/10/28 12:31:23;;;;;;;8.93;3.92;;;;;;;;;;6254890;28;20041;-61
2023/10/28 12:34:24;;;;;;;10.07;4.47;;;;;;;;;;6250104;28;20049;-61
2023/10/28 12:37:26;;;;;;;8.13;3.92;;;;;;;;;;6253977;28;20036;-61
2023/10/28 12:40:27;;;;;;;10.70;4.05;;;;;;;;;;6256193;28;20045;-61
2023/10/28 12:43:28;;;;;;;9.85;4.38;;;;;;;;;;6255234;28;20049;-61
2023/10/28 12:46:30;;;;;;;8.85;3.97;;;;;;;;;;6258686;28;20052;-61
2023/10/28 12:49:31;;;;;;;8.88;4.07;;;;;;;;;;6260373;28;20056;-61
2023/10/28 12:52:31;;;;;;;10.77;4.10;;;;;;;;;;6260160;28;20503;-61
2023/10/28 12:55:32;;;;;;;14.93;4.00;;;;;;;;;;6254187;28;20057;-61
2023/10/28 12:58:33;;;;;;;9.93;4.95;;;;;;;;;;6258641;28;20049;-61
2023/10/28 13:01:34;;;;;;;7.35;3.97;;;;;;;;;;6257242;28;20748;-62
2023/10/28 13:04:35;;;;;;;7.07;3.63;;;;;;;;;;6255119;28;20061;-60
2023/10/28 13:07:35;;;;;;;5.88;3.65;;;;;;;;;;6257214;28;20084;-61
2023/10/28 13:10:36;;;;;;;10.77;7.60;;;;;;;;;;6258690;28;20053;-61
2023/10/28 13:13:37;;;;;;;5.75;3.70;;;;;;;;;;6256735;28;20491;-61
2023/10/28 13:16:37;;;;;;;10.75;4.10;;;;;;;;;;6257612;28;20053;-61
2023/10/28 13:19:38;;;;;;;5.70;3.53;;;;;;;;;;6256339;28;20112;-61
2023/10/28 13:22:40;;;;;;;9.07;3.95;;;;;;;;;;6254308;28;20164;-61
2023/10/28 13:25:41;;;;;;;8.65;4.03;;;;;;;;;;6255596;28;20494;-60
2023/10/28 13:28:43;;;;;;;6.80;3.53;;;;;;;;;;6256100;28;20080;-61
2023/10/28 13:31:43;;;;;;;7.30;3.90;;;;;;;;;;6258207;28;20049;-61
2023/10/28 13:34:44;;;;;;;6.63;3.05;;;;;;;;;;6254062;28;20053;-61
2023/10/28 13:37:44;;;;;;;9.57;3.53;;;;;;;;;;6262651;28;20041;-60
2023/10/28 13:40:45;;;;;;;6.50;2.90;;;;;;;;;;6267348;28;20041;-61
2023/10/28 13:43:46;;;;;;;10.10;3.50;;;;;;;;;;6264574;28;20088;-61
2023/10/28 13:46:46;;;;;;;9.18;3.53;;;;;;;;;;6266984;28;20041;-61
2023/10/28 13:49:47;;;;;;;8.48;3.53;;;;;;;;;;6266555;28;20053;-61
2023/10/28 13:52:48;;;;;;;5.97;3.03;;;;;;;;;;6267340;28;20107;-61
2023/10/28 13:55:50;;;;;;;6.55;2.88;;;;;;;;;;6265611;28;20072;-61
2023/10/28 13:58:51;;;;;;;7.20;2.90;;;;;;;;;;6267528;28;20053;-61
2023/10/28 14:01:52;;;;;;;7.10;3.03;;;;;;;;;;6266543;28;20083;-61
2023/10/28 14:04:53;;;;;;;12.30;5.32;;;;;;;;;;6265154;28;20051;-61
2023/10/28 14:07:53;;;;;;;11.02;4.05;;;;;;;;;;6267956;28;20044;-61
2023/10/28 14:10:54;;;;;;;6.05;3.00;;;;;;;;;;6267187;28;20646;-61
2023/10/28 14:13:55;;;;;;;13.18;5.50;;;;;;;;;;6266380;28;20084;-61
2023/10/28 14:16:55;;;;;;;7.97;3.25;;;;;;;;;;6266576;28;20087;-61
2023/10/28 14:19:56;;;;;;;10.30;4.88;;;;;;;;;;6267452;28;20041;-61
2023/10/28 14:22:57;;;;;;;8.93;3.97;;;;;;;;;;6267233;28;20048;-61
2023/10/28 14:25:58;;;;;;;6.97;3.22;;;;;;;;;;6265857;28;20041;-61
2023/10/28 14:28:59;;;;;;;7.82;3.58;;;;;;;;;;6266526;28;20159;-60
2023/10/28 14:31:59;;;;;;;13.57;7.30;;;;;;;;;;6266980;28;20037;-61
2023/10/28 14:35:03;;;;;;;7.38;3.55;;;;;;;;;;6265749;28;20049;-61
2023/10/28 14:38:04;;;;;;;10.73;6.63;;;;;;;;;;6266113;28;20114;-61
2023/10/28 14:41:05;;;;;;;9.63;3.75;;;;;;;;;;6263790;28;20084;-61
2023/10/28 14:44:06;;;;;;;12.52;6.85;;;;;;;;;;6264347;28;20048;-61
2023/10/28 14:47:07;;;;;;;13.23;4.20;;;;;;;;;;6266105;28;20047;-61
2023/10/28 14:50:08;;;;;;;12.77;4.00;;;;;;;;;;6267076;28;20045;-61
2023/10/28 14:53:10;;;;;;;31.55;14.55;;;;;;;;;;6266237;28;20114;-61
2023/10/28 14:56:11;;;;;;;51.15;22.75;;;;;;;;;;6265378;28;20138;-61
2023/10/28 14:59:11;;;;;;;12.97;4.93;;;;;;;;;;6264911;28;20579;-61
2023/10/28 15:02:12;;;;;;;15.13;7.10;;;;;;;;;;6264791;28;20060;-60
2023/10/28 15:05:13;;;;;;;11.65;5.45;;;;;;;;;;6262549;28;20586;-61
2023/10/28 15:08:13;;;;;;;13.05;5.53;;;;;;;;;;6265233;28;20060;-61
2023/10/28 15:11:14;;;;;;;11.45;4.50;;;;;;;;;;6264294;28;20049;-61
2023/10/28 15:14:14;;;;;;;26.45;5.90;;;;;;;;;;6264391;28;20441;-61
2023/10/28 15:17:15;;;;;;;13.32;6.05;;;;;;;;;;6265386;28;20044;-61
2023/10/28 15:20:15;;;;;;;17.40;5.95;;;;;;;;;;6265328;28;20318;-61
2023/10/28 15:23:16;;;;;;;18.02;6.93;;;;;;;;;;6264752;28;20098;-61
2023/10/28 15:26:19;;;;;;;14.02;6.07;;;;;;;;;;6265045;28;20087;-61
2023/10/28 15:29:20;;;;;;;11.05;5.00;;;;;;;;;;6262767;28;20051;-61
2023/10/28 15:32:22;;;;;;;14.68;6.35;;;;;;;;;;6264681;28;20407;-61
2023/10/28 15:35:23;;;;;;;19.65;6.53;;;;;;;;;;6265370;28;20049;-61
2023/10/28 15:38:23;;;;;;;15.63;6.78;;;;;;;;;;6264549;28;20096;-61
2023/10/28 15:41:24;;;;;;;15.02;5.75;;;;;;;;;;6265207;28;20068;-61
2023/10/28 15:44:24;;;;;;;14.57;6.10;;;;;;;;;;6264562;28;20484;-61
2023/10/28 15:47:25;;;;;;;9.73;4.03;;;;;;;;;;6265564;28;20064;-61
2023/10/28 15:50:25;;;;;;;11.02;5.38;;;;;;;;;;6265413;28;20056;-61
2023/10/28 15:53:26;;;;;;;23.27;12.32;;;;;;;;;;6260133;28;20044;-61
2023/10/28 15:56:26;;;;;;;11.35;5.97;;;;;;;;;;6263442;28;20045;-61
2023/10/28 15:59:28;;;;;;;11.10;4.88;;;;;;;;;;6263095;28;20140;-61
2023/10/28 16:02:28;;;;;;;11.15;4.97;;;;;;;;;;6265431;28;20055;-61
2023/10/28 16:05:29;;;;;;;18.48;5.75;;;;;;;;;;6261438;28;20045;-61
2023/10/28 16:08:29;;;;;;;18.48;6.47;;;;;;;;;;6262990;28;20512;-61
2023/10/28 16:11:31;;;;;;;16.08;6.15;;;;;;;;;;6262965;28;20120;-61
2023/10/28 16:14:33;;;;;;;16.37;6.50;;;;;;;;;;6257967;28;20099;-61
2023/10/28 16:17:33;;;;;;;18.50;7.85;;;;;;;;;;6265818;28;20089;-61
2023/10/28 16:20:34;;;;;;;22.52;7.38;;;;;;;;;;6265662;28;20384;-61
2023/10/28 16:23:39;;;;;;;14.73;6.05;;;;;;;;;;6252712;28;20079;-61
2023/10/28 16:26:45;;;;;;;15.30;7.10;;;;;;;;;;6246384;28;20404;-61
2023/10/28 16:29:46;;;;;;;129.23;50.67;;;;;;;;;;6258458;28;20048;-61
2023/10/28 16:32:46;;;;;;;13.77;7.25;;;;;;;;;;6254076;28;20389;-61
2023/10/28 16:35:47;;;;;;;15.27;6.25;;;;;;;;;;6264970;28;20076;-60
2023/10/28 16:38:48;;;;;;;16.42;7.32;;;;;;;;;;6265983;28;20441;-60
2023/10/28 16:41:48;;;;;;;13.80;6.57;;;;;;;;;;6266552;28;20081;-60
2023/10/28 16:44:50;;;;;;;13.80;6.72;;;;;;;;;;6259006;28;20045;-61
2023/10/28 16:47:50;;;;;;;15.75;6.63;;;;;;;;;;6265547;28;20045;-61
2023/10/28 16:50:54;;;;;;;16.80;7.15;;;;;;;;;;6266144;28;20107;-60
2023/10/28 16:53:55;;;;;;;13.70;6.13;;;;;;;;;;6252092;28;20128;-60
2023/10/28 16:56:55;;;;;;;15.27;6.32;;;;;;;;;;6265045;28;20037;-60
2023/10/28 16:59:56;;;;;;;14.48;6.15;;;;;;;;;;6265712;28;20102;-60
2023/10/28 17:02:57;;;;;;;29.85;13.32;;;;;;;;;;6265189;28;20411;-61
2023/10/28 17:05:58;;;;;;;21.27;10.70;;;;;;;;;;6264147;28;20044;-61
2023/10/28 17:09:01;;;;;;;23.75;13.25;;;;;;;;;;6265728;28;20080;-60
2023/10/28 17:12:02;;;;;;;22.23;10.32;;;;;;;;;;6260541;28;20040;-59
2023/10/28 17:15:04;;;;;;;26.98;12.50;;;;;;;;;;6256889;28;20057;-59
2023/10/28 17:18:05;;;;;;;;;;;;;;;;;;6261729;28;20044;-60
2023/10/28 17:21:06;;;;;;;36.45;18.30;;;;;;;;;;6266440;28;19932;-61
2023/10/28 17:24:07;;;;;;;52.90;31.08;;;;;;;;;;6254280;28;20060;-61
2023/10/28 17:27:07;;;;;;;25.20;13.77;;;;;;;;;;6259817;28;20037;-61
2023/10/28 17:30:08;;;;;;;19.85;8.05;;;;;;;;;;6278149;28;20483;-60
2023/10/28 17:33:11;;;;;;;29.67;14.85;;;;;;;;;;6264678;28;20057;-61
2023/10/28 17:36:12;;;;;;;47.65;19.42;;;;;;;;;;6265477;28;20145;-61
2023/10/28 17:39:12;;;;;;;41.35;18.30;;;;;;;;;;6263678;28;20092;-61
2023/10/28 17:42:13;;;;;;;41.95;18.05;;;;;;;;;;6257264;28;20088;-61
2023/10/28 17:45:13;;;;;;;91.22;38.75;;;;;;;;;;6263703;28;20049;-60
2023/10/28 17:48:14;;;;;;;33.45;17.02;;;;;;;;;;6263764;28;20049;-61
2023/10/28 17:51:17;;;;;;;25.75;10.55;;;;;;;;;;6261267;28;20143;-61
2023/10/28 17:54:18;;;;;;;36.20;21.83;;;;;;;;;;6256367;28;20136;-62